^^
Datos históricos de la estación: Murcia-Puente Tocinos
Diario Informe para Junio 23, 2019 Unidades:  Ambas    Ingés   Métrico
Diario Semanal Mensual Anual
  Máxima: Mínima: Promedio:
Temperatura: 65.3 °F /  18.5 °C 50.4 °F /  10.2 °C 58.3 °F /  14.6 °C
Punto de rocio: 41 °F /  5 °C 35.6 °F /  2 °C 38.8 °F /  3.8 °C
Humedad: 63% 35.7% 49%
Velocidad viento: 14.7mph /  23.7km/h - 7.5mph /  12km/h
Racha viento: 34mph /  54.7km/h - -
Viento- - SO
Presión: 29.8 in /  1010.6 hPa 29.6 in /  1002.4 hPa -
Precipitación: 0 in /  0.0 mm    
 
 
Tabla de datos para Junio 23, 2019
Hora Temperatura Punto de rocio Presión Viento Velocidad viento Racha viento Humedad Intensidad lluvia(por hora) Nubes
00:04 53.4 °F /  11.9 °C 36.1 °F /  2.3 °C 29.8in /  1010.6hPa NO 10.2mph /  16.4km/h 17mph /  27.4km/h 52% 0in /  0.0mm
00:09 53.4 °F /  11.9 °C 36.1 °F /  2.3 °C 29.8in /  1010.4hPa ONO 9.3mph /  14.9km/h 15.2mph /  24.5km/h 52% 0in /  0.0mm
00:14 53.2 °F /  11.8 °C 36.5 °F /  2.5 °C 29.8in /  1010.4hPa Oeste 8.5mph /  13.7km/h 15mph /  24.1km/h 52.8% 0in /  0.0mm
00:19 53.2 °F /  11.8 °C 36.1 °F /  2.3 °C 29.8in /  1010.5hPa OSO 5.9mph /  9.5km/h 10.4mph /  16.7km/h 52.2% 0in /  0.0mm
00:24 52.9 °F /  11.6 °C 35.8 °F /  2.1 °C 29.8in /  1010.5hPa SO 4.7mph /  7.6km/h 10mph /  16.1km/h 52% 0in /  0.0mm
00:29 52.2 °F /  11.2 °C 35.6 °F /  2 °C 29.8in /  1010.5hPa SSO 4.7mph /  7.6km/h 7mph /  11.3km/h 53.3% 0in /  0.0mm
00:34 51.6 °F /  10.9 °C 35.8 °F /  2.1 °C 29.8in /  1010.5hPa SSE 4.7mph /  7.6km/h 7mph /  11.3km/h 54.6% 0in /  0.0mm
00:39 51.4 °F /  10.8 °C 36 °F /  2.2 °C 29.8in /  1010.1hPa Sur 3.8mph /  6.1km/h 7mph /  11.3km/h 55.4% 0in /  0.0mm
00:44 51.4 °F /  10.8 °C 36.3 °F /  2.4 °C 29.8in /  1010.1hPa ESE 3.1mph /  5km/h 7mph /  11.3km/h 56% 0in /  0.0mm
00:49 51.4 °F /  10.8 °C 36.3 °F /  2.4 °C 29.8in /  1010.1hPa SSE 3.6mph /  5.8km/h 8.5mph /  13.7km/h 56% 0in /  0.0mm
00:54 51.6 °F /  10.9 °C 36.3 °F /  2.4 °C 29.8in /  1009.9hPa SSE 4mph /  6.5km/h 9.7mph /  15.6km/h 55.9% 0in /  0.0mm
00:59 52.2 °F /  11.2 °C 36.5 °F /  2.5 °C 29.8in /  1009.9hPa Sur 4.9mph /  7.9km/h 10mph /  16.1km/h 55% 0in /  0.0mm
01:04 52.3 °F /  11.3 °C 36.1 °F /  2.3 °C 29.8in /  1009.9hPa Sur 5.2mph /  8.4km/h 6mph /  9.7km/h 54% 0in /  0.0mm
01:09 52.5 °F /  11.4 °C 36.3 °F /  2.4 °C 29.8in /  1009.8hPa SSE 4mph /  6.4km/h 6.2mph /  10km/h 54% 0in /  0.0mm
01:14 52.7 °F /  11.5 °C 36.1 °F /  2.3 °C 29.8in /  1009.8hPa SSE 3.1mph /  5km/h 6mph /  9.7km/h 53.3% 0in /  0.0mm
01:19 52.9 °F /  11.6 °C 36.1 °F /  2.3 °C 29.8in /  1009.8hPa SSE 2.4mph /  3.8km/h 5.2mph /  8.4km/h 53% 0in /  0.0mm
01:24 52.9 °F /  11.6 °C 36.3 °F /  2.4 °C 29.8in /  1009.6hPa SSE 1.8mph /  2.9km/h 5mph /  8km/h 53.3% 0in /  0.0mm
01:29 52.9 °F /  11.6 °C 36.3 °F /  2.4 °C 29.8in /  1009.6hPa Sur 1.8mph /  2.9km/h 7.4mph /  11.9km/h 53.4% 0in /  0.0mm
01:34 52.9 °F /  11.6 °C 36.3 °F /  2.4 °C 29.8in /  1009.6hPa OSO 1.8mph /  2.9km/h 8.5mph /  13.7km/h 53.3% 0in /  0.0mm
01:39 52.9 °F /  11.6 °C 36.5 °F /  2.5 °C 29.8in /  1009.5hPa SO 3.7mph /  6km/h 9.2mph /  14.8km/h 53.6% 0in /  0.0mm
01:44 52.9 °F /  11.6 °C 36.7 °F /  2.6 °C 29.8in /  1009.5hPa SSO 5.2mph /  8.4km/h 11.5mph /  18.5km/h 53.8% 0in /  0.0mm
01:49 52.9 °F /  11.6 °C 36.7 °F /  2.6 °C 29.8in /  1009.5hPa SSO 5.6mph /  9km/h 12mph /  19.3km/h 54% 0in /  0.0mm
01:54 52.9 °F /  11.6 °C 36.7 °F /  2.6 °C 29.8in /  1009.2hPa SSO 5.9mph /  9.5km/h 9mph /  14.5km/h 54% 0in /  0.0mm
01:59 52.5 °F /  11.4 °C 36.5 °F /  2.5 °C 29.8in /  1009.2hPa SSO 5.5mph /  8.8km/h 9mph /  14.5km/h 54.4% 0in /  0.0mm
02:04 52.5 °F /  11.4 °C 36.9 °F /  2.7 °C 29.8in /  1009.3hPa SSO 5.2mph /  8.4km/h 7.4mph /  11.9km/h 55% 0in /  0.0mm
02:09 52.5 °F /  11.4 °C 36.9 °F /  2.7 °C 29.8in /  1009.3hPa OSO 4.7mph /  7.6km/h 8.1mph /  13km/h 55% 0in /  0.0mm
02:14 52.5 °F /  11.4 °C 36.9 °F /  2.7 °C 29.8in /  1009.3hPa Sur 4.3mph /  6.9km/h 8mph /  12.9km/h 55% 0in /  0.0mm
02:19 52.7 °F /  11.5 °C 37 °F /  2.8 °C 29.8in /  1009.3hPa SSE 4.2mph /  6.7km/h 8.1mph /  13km/h 55% 0in /  0.0mm
02:24 52.7 °F /  11.5 °C 37 °F /  2.8 °C 29.8in /  1009.2hPa SSE 4mph /  6.5km/h 9.7mph /  15.6km/h 55% 0in /  0.0mm
02:29 52.5 °F /  11.4 °C 37.2 °F /  2.9 °C 29.8in /  1009.2hPa Sur 5.1mph /  8.2km/h 10mph /  16.1km/h 55.9% 0in /  0.0mm
02:34 52.7 °F /  11.5 °C 37.4 °F /  3 °C 29.8in /  1009.2hPa Sur 5.9mph /  9.5km/h 10.7mph /  17.2km/h 55.9% 0in /  0.0mm
02:39 53.1 °F /  11.7 °C 37.2 °F /  2.9 °C 29.8in /  1009.2hPa Sur 6.2mph /  9.9km/h 11.8mph /  19km/h 55% 0in /  0.0mm
02:44 53.1 °F /  11.7 °C 37.2 °F /  2.9 °C 29.8in /  1009.2hPa SSE 6.4mph /  10.3km/h 12mph /  19.3km/h 55% 0in /  0.0mm
02:49 53.1 °F /  11.7 °C 37.6 °F /  3.1 °C 29.8in /  1009.2hPa Sur 7mph /  11.2km/h 13mph /  20.9km/h 55.5% 0in /  0.0mm
02:54 53.1 °F /  11.7 °C 37.8 °F /  3.2 °C 29.8in /  1009.2hPa Sur 7.4mph /  11.9km/h 15mph /  24.1km/h 56% 0in /  0.0mm
02:59 53.1 °F /  11.7 °C 37.8 °F /  3.2 °C 29.8in /  1009.2hPa SO 7.8mph /  12.6km/h 15mph /  24.1km/h 56% 0in /  0.0mm
03:04 53.1 °F /  11.7 °C 37.8 °F /  3.2 °C 29.8in /  1009.2hPa Sur 8.1mph /  13km/h 12mph /  19.3km/h 56% 0in /  0.0mm
03:09 52.9 °F /  11.6 °C 37.9 °F /  3.3 °C 29.8in /  1009.2hPa Sur 6.2mph /  9.9km/h 10.4mph /  16.7km/h 56.9% 0in /  0.0mm
03:14 52.7 °F /  11.5 °C 37.9 °F /  3.3 °C 29.8in /  1009.2hPa Sur 4.7mph /  7.6km/h 10mph /  16.1km/h 57% 0in /  0.0mm
03:19 52.5 °F /  11.4 °C 37.8 °F /  3.2 °C 29.8in /  1009.2hPa SSE 5.7mph /  9.1km/h 12.7mph /  20.4km/h 57% 0in /  0.0mm
03:24 52.5 °F /  11.4 °C 37.9 °F /  3.3 °C 29.8in /  1008.9hPa SSE 6.4mph /  10.3km/h 13mph /  20.9km/h 57.4% 0in /  0.0mm
03:29 52.9 °F /  11.6 °C 38.1 °F /  3.4 °C 29.8in /  1008.9hPa Sur 7.6mph /  12.2km/h 13mph /  20.9km/h 57.3% 0in /  0.0mm
03:34 52.9 °F /  11.6 °C 38.1 °F /  3.4 °C 29.8in /  1008.9hPa Sur 8.5mph /  13.7km/h 13mph /  20.9km/h 57% 0in /  0.0mm
03:39 52.9 °F /  11.6 °C 38.1 °F /  3.4 °C 29.8in /  1008.8hPa Sur 7.9mph /  12.7km/h 10mph /  16.1km/h 57.2% 0in /  0.0mm
03:44 52.9 °F /  11.6 °C 38.3 °F /  3.5 °C 29.8in /  1008.8hPa Sur 7.4mph /  11.9km/h 11.8mph /  19km/h 57.7% 0in /  0.0mm
03:49 52.9 °F /  11.6 °C 38.3 °F /  3.5 °C 29.8in /  1008.8hPa SSO 6.7mph /  10.8km/h 12mph /  19.3km/h 57.5% 0in /  0.0mm
03:54 52.9 °F /  11.6 °C 38.1 °F /  3.4 °C 29.8in /  1008.7hPa SSO 6.2mph /  10km/h 10mph /  16.1km/h 57.2% 0in /  0.0mm
03:59 52.7 °F /  11.5 °C 38.1 °F /  3.4 °C 29.8in /  1008.7hPa SSO 5.7mph /  9.2km/h 9mph /  14.5km/h 57.5% 0in /  0.0mm
04:04 52.5 °F /  11.4 °C 38.1 °F /  3.4 °C 29.8in /  1008.7hPa SO 5.4mph /  8.7km/h 7mph /  11.3km/h 58% 0in /  0.0mm
04:09 52.3 °F /  11.3 °C 38.1 °F /  3.4 °C 29.8in /  1008.4hPa OSO 4.6mph /  7.4km/h 7mph /  11.3km/h 58% 0in /  0.0mm
04:14 52.3 °F /  11.3 °C 37.9 °F /  3.3 °C 29.8in /  1008.4hPa Oeste 4mph /  6.5km/h 5.8mph /  9.3km/h 58% 0in /  0.0mm
04:19 52.3 °F /  11.3 °C 38.3 °F /  3.5 °C 29.8in /  1008.4hPa Oeste 3.5mph /  5.6km/h 8.1mph /  13km/h 58.9% 0in /  0.0mm
04:24 52.3 °F /  11.3 °C 38.5 °F /  3.6 °C 29.8in /  1008.2hPa ONO 3.1mph /  5km/h 8mph /  12.9km/h 59% 0in /  0.0mm
04:29 52.3 °F /  11.3 °C 38.5 °F /  3.6 °C 29.8in /  1008.2hPa ONO 3.4mph /  5.4km/h 6.4mph /  10.3km/h 59% 0in /  0.0mm
04:34 52.3 °F /  11.3 °C 38.5 °F /  3.6 °C 29.8in /  1008.2hPa Oeste 3.6mph /  5.8km/h 10.4mph /  16.7km/h 59% 0in /  0.0mm
04:39 52.5 °F /  11.4 °C 38.5 °F /  3.6 °C 29.8in /  1008.0hPa ONO 4.5mph /  7.3km/h 10mph /  16.1km/h 59% 0in /  0.0mm
04:44 52.3 °F /  11.3 °C 38.5 °F /  3.6 °C 29.8in /  1008.0hPa Oeste 5.2mph /  8.4km/h 9.2mph /  14.8km/h 59% 0in /  0.0mm
04:49 52.3 °F /  11.3 °C 38.5 °F /  3.6 °C 29.8in /  1008.0hPa Oeste 5.3mph /  8.5km/h 10.7mph /  17.2km/h 59.3% 0in /  0.0mm
04:54 52.2 °F /  11.2 °C 38.7 °F /  3.7 °C 29.8in /  1007.9hPa Oeste 5.4mph /  8.7km/h 11mph /  17.7km/h 60% 0in /  0.0mm
04:59 52 °F /  11.1 °C 38.5 °F /  3.6 °C 29.8in /  1007.9hPa Oeste 5.9mph /  9.5km/h 11.5mph /  18.5km/h 60% 0in /  0.0mm
05:04 51.6 °F /  10.9 °C 38.7 °F /  3.7 °C 29.8in /  1007.9hPa Oeste 6.2mph /  10km/h 12mph /  19.3km/h 61% 0in /  0.0mm
05:09 51.4 °F /  10.8 °C 38.5 °F /  3.6 °C 29.8in /  1007.8hPa Oeste 6mph /  9.7km/h 11.5mph /  18.5km/h 61% 0in /  0.0mm
05:14 51.4 °F /  10.8 °C 38.5 °F /  3.6 °C 29.8in /  1007.8hPa Oeste 5.9mph /  9.5km/h 12mph /  19.3km/h 61.1% 0in /  0.0mm
05:19 51.3 °F /  10.7 °C 38.7 °F /  3.7 °C 29.8in /  1007.9hPa Oeste 5.6mph /  9km/h 10mph /  16.1km/h 62% 0in /  0.0mm
05:24 51.3 °F /  10.7 °C 38.7 °F /  3.7 °C 29.8in /  1007.9hPa Oeste 5.4mph /  8.7km/h 9mph /  14.5km/h 62% 0in /  0.0mm
05:29 51.1 °F /  10.6 °C 38.5 °F /  3.6 °C 29.8in /  1007.9hPa Oeste 4.8mph /  7.7km/h 7mph /  11.3km/h 62% 0in /  0.0mm
05:34 51.1 °F /  10.6 °C 38.5 °F /  3.6 °C 29.8in /  1008.0hPa OSO 4.3mph /  6.9km/h 6mph /  9.7km/h 62.2% 0in /  0.0mm
05:39 50.9 °F /  10.5 °C 38.7 °F /  3.7 °C 29.8in /  1008.0hPa OSO 3.6mph /  5.8km/h 6.2mph /  10km/h 63% 0in /  0.0mm
05:44 50.9 °F /  10.5 °C 38.7 °F /  3.7 °C 29.8in /  1008.0hPa OSO 3.1mph /  5km/h 6mph /  9.7km/h 63% 0in /  0.0mm
05:49 50.9 °F /  10.5 °C 38.7 °F /  3.7 °C 29.8in /  1008.0hPa SSO 3.4mph /  5.4km/h 7.4mph /  11.9km/h 63% 0in /  0.0mm
05:54 50.7 °F /  10.4 °C 38.7 °F /  3.7 °C 29.8in /  1007.9hPa SO 3.6mph /  5.8km/h 7mph /  11.3km/h 63% 0in /  0.0mm
05:59 51.1 °F /  10.6 °C 38.7 °F /  3.7 °C 29.8in /  1007.9hPa OSO 4mph /  6.5km/h 7mph /  11.3km/h 62.7% 0in /  0.0mm
06:04 51.3 °F /  10.7 °C 38.7 °F /  3.7 °C 29.8in /  1008.1hPa OSO 4.3mph /  6.9km/h 6.2mph /  10km/h 62% 0in /  0.0mm
06:09 51.4 °F /  10.8 °C 38.7 °F /  3.7 °C 29.8in /  1008.1hPa SO 3.9mph /  6.3km/h 6.9mph /  11.1km/h 61.5% 0in /  0.0mm
06:14 51.6 °F /  10.9 °C 38.7 °F /  3.7 °C 29.8in /  1008.1hPa SO 3.6mph /  5.8km/h 7mph /  11.3km/h 61% 0in /  0.0mm
06:19 52 °F /  11.1 °C 38.7 °F /  3.7 °C 29.8in /  1008.2hPa SO 3.3mph /  5.3km/h 5.2mph /  8.4km/h 60.5% 0in /  0.0mm
06:24 52.2 °F /  11.2 °C 38.7 °F /  3.7 °C 29.8in /  1008.2hPa NO 3.1mph /  5km/h 5mph /  8km/h 60% 0in /  0.0mm
06:29 51.8 °F /  11 °C 38.8 °F /  3.8 °C 29.8in /  1008.2hPa NO 2.4mph /  3.8km/h 4mph /  6.4km/h 60.9% 0in /  0.0mm
06:34 52 °F /  11.1 °C 38.7 °F /  3.7 °C 29.8in /  1008.2hPa Sur 1.8mph /  2.9km/h 5.9mph /  9.5km/h 60.4% 0in /  0.0mm
06:39 52.3 °F /  11.3 °C 38.7 °F /  3.7 °C 29.8in /  1008.0hPa SO 2.5mph /  4.1km/h 6mph /  9.7km/h 59.4% 0in /  0.0mm
06:44 52.7 °F /  11.5 °C 38.7 °F /  3.7 °C 29.8in /  1008.0hPa SSO 3.1mph /  5km/h 7.4mph /  11.9km/h 58.8% 0in /  0.0mm
06:49 53.1 °F /  11.7 °C 38.7 °F /  3.7 °C 29.8in /  1008.0hPa SSO 3.6mph /  5.8km/h 7.4mph /  11.9km/h 58% 0in /  0.0mm
06:54 53.1 °F /  11.7 °C 38.7 °F /  3.7 °C 29.8in /  1007.7hPa OSO 4mph /  6.5km/h 7mph /  11.3km/h 58% 0in /  0.0mm
06:59 53.2 °F /  11.8 °C 38.5 °F /  3.6 °C 29.8in /  1007.7hPa OSO 4.2mph /  6.8km/h 7mph /  11.3km/h 57.1% 0in /  0.0mm
07:04 53.1 °F /  11.7 °C 38.1 °F /  3.4 °C 29.8in /  1007.7hPa SO 4.3mph /  6.9km/h 6.9mph /  11.1km/h 57% 0in /  0.0mm
07:09 53.1 °F /  11.7 °C 38.7 °F /  3.7 °C 29.8in /  1007.4hPa SO 4.2mph /  6.7km/h 7mph /  11.3km/h 58% 0in /  0.0mm
07:14 52.7 °F /  11.5 °C 38.3 °F /  3.5 °C 29.8in /  1007.4hPa SO 4mph /  6.5km/h 5.9mph /  9.5km/h 58% 0in /  0.0mm
07:19 52.5 °F /  11.4 °C 38.1 °F /  3.4 °C 29.8in /  1007.4hPa SO 3.8mph /  6.1km/h 7.4mph /  11.9km/h 58% 0in /  0.0mm
07:24 52.5 °F /  11.4 °C 38.1 °F /  3.4 °C 29.8in /  1007.4hPa SO 3.6mph /  5.8km/h 7mph /  11.3km/h 58% 0in /  0.0mm
07:29 52.5 °F /  11.4 °C 38.1 °F /  3.4 °C 29.8in /  1007.4hPa SO 4.2mph /  6.8km/h 7.4mph /  11.9km/h 58% 0in /  0.0mm
07:34 52.5 °F /  11.4 °C 38.1 °F /  3.4 °C 29.8in /  1007.4hPa SO 4.7mph /  7.6km/h 7.4mph /  11.9km/h 58% 0in /  0.0mm
07:39 52.3 °F /  11.3 °C 38.1 °F /  3.4 °C 29.7in /  1007.3hPa SSO 5mph /  8km/h 8.1mph /  13km/h 58% 0in /  0.0mm
07:44 52.2 °F /  11.2 °C 37.8 °F /  3.2 °C 29.7in /  1007.3hPa SSO 5.2mph /  8.4km/h 8.5mph /  13.7km/h 58% 0in /  0.0mm
07:49 51.8 °F /  11 °C 37.8 °F /  3.2 °C 29.7in /  1007.3hPa Sur 5.3mph /  8.6km/h 9.7mph /  15.6km/h 58.7% 0in /  0.0mm
07:54 51.4 °F /  10.8 °C 37.6 °F /  3.1 °C 29.7in /  1007.3hPa SSO 5.4mph /  8.7km/h 10mph /  16.1km/h 59.2% 0in /  0.0mm
07:59 51.3 °F /  10.7 °C 37.8 °F /  3.2 °C 29.7in /  1007.3hPa SSO 5.7mph /  9.2km/h 9.7mph /  15.6km/h 60% 0in /  0.0mm
08:04 51.1 °F /  10.6 °C 37.8 °F /  3.2 °C 29.7in /  1007.3hPa SSO 5.9mph /  9.5km/h 10mph /  16.1km/h 60% 0in /  0.0mm
08:09 50.9 °F /  10.5 °C 37.6 °F /  3.1 °C 29.7in /  1007.0hPa SSO 6.1mph /  9.8km/h 11.5mph /  18.5km/h 60% 0in /  0.0mm
08:14 50.7 °F /  10.4 °C 37.4 °F /  3 °C 29.7in /  1007.0hPa SSO 6.2mph /  10km/h 12mph /  19.3km/h 60% 0in /  0.0mm
08:19 50.9 °F /  10.5 °C 37.4 °F /  3 °C 29.7in /  1007.0hPa Sur 6mph /  9.7km/h 9mph /  14.5km/h 60% 0in /  0.0mm
08:24 50.9 °F /  10.5 °C 37.4 °F /  3 °C 29.7in /  1006.9hPa Sur 5.9mph /  9.5km/h 9mph /  14.5km/h 60% 0in /  0.0mm
08:29 50.7 °F /  10.4 °C 37.8 °F /  3.2 °C 29.7in /  1006.9hPa SSO 5.5mph /  8.9km/h 8.1mph /  13km/h 60.9% 0in /  0.0mm
08:34 50.5 °F /  10.3 °C 37.6 °F /  3.1 °C 29.7in /  1006.9hPa SSO 5.2mph /  8.4km/h 8.1mph /  13km/h 61.1% 0in /  0.0mm
08:39 50.4 °F /  10.2 °C 37.9 °F /  3.3 °C 29.7in /  1006.9hPa SSO 4.9mph /  7.9km/h 8.5mph /  13.7km/h 62% 0in /  0.0mm
08:44 50.5 °F /  10.3 °C 37.9 °F /  3.3 °C 29.7in /  1006.9hPa SSO 4.7mph /  7.6km/h 9mph /  14.5km/h 62% 0in /  0.0mm
08:49 50.5 °F /  10.3 °C 37.8 °F /  3.2 °C 29.7in /  1006.9hPa SSO 4.3mph /  6.9km/h 6mph /  9.7km/h 61.1% 0in /  0.0mm
08:54 50.9 °F /  10.5 °C 37.9 °F /  3.3 °C 29.7in /  1006.5hPa SSO 4mph /  6.5km/h 5mph /  8km/h 61% 0in /  0.0mm
08:59 51.3 °F /  10.7 °C 37.9 °F /  3.3 °C 29.7in /  1006.5hPa Sur 2.7mph /  4.4km/h 5.2mph /  8.4km/h 60.6% 0in /  0.0mm
09:04 51.3 °F /  10.7 °C 37.8 °F /  3.2 °C 29.7in /  1006.5hPa SSE 2mph /  3.2km/h 8.1mph /  13km/h 60% 0in /  0.0mm
09:09 51.3 °F /  10.7 °C 37.8 °F /  3.2 °C 29.7in /  1006.4hPa Sur 2.7mph /  4.3km/h 8mph /  12.9km/h 60% 0in /  0.0mm
09:14 51.3 °F /  10.7 °C 38.1 °F /  3.4 °C 29.7in /  1006.4hPa SSO 3.1mph /  5km/h 5mph /  8km/h 60.5% 0in /  0.0mm
09:19 51.6 °F /  10.9 °C 38.3 °F /  3.5 °C 29.7in /  1006.6hPa SSO 2.4mph /  3.8km/h 4.6mph /  7.4km/h 60.4% 0in /  0.0mm
09:24 51.6 °F /  10.9 °C 38.3 °F /  3.5 °C 29.7in /  1006.6hPa Sur 1.8mph /  2.9km/h 5.2mph /  8.4km/h 60.1% 0in /  0.0mm
09:29 51.6 °F /  10.9 °C 38.3 °F /  3.5 °C 29.7in /  1006.6hPa NNE 1.9mph /  3.1km/h 5mph /  8km/h 60% 0in /  0.0mm
09:34 51.6 °F /  10.9 °C 38.5 °F /  3.6 °C 29.7in /  1006.6hPa ESE 2mph /  3.2km/h 6.4mph /  10.3km/h 60.6% 0in /  0.0mm
09:39 51.6 °F /  10.9 °C 38.7 °F /  3.7 °C 29.7in /  1006.0hPa NE 2.5mph /  4.1km/h 6.9mph /  11.1km/h 61% 0in /  0.0mm
09:44 51.6 °F /  10.9 °C 38.7 °F /  3.7 °C 29.7in /  1006.0hPa Este 2.9mph /  4.6km/h 7mph /  11.3km/h 61% 0in /  0.0mm
09:49 52 °F /  11.1 °C 38.7 °F /  3.7 °C 29.7in /  1006.0hPa ESE 3mph /  4.8km/h 6mph /  9.7km/h 60.4% 0in /  0.0mm
09:54 52.2 °F /  11.2 °C 39 °F /  3.9 °C 29.7in /  1005.5hPa Este 3.1mph /  5km/h 6mph /  9.7km/h 60.6% 0in /  0.0mm
09:59 52.5 °F /  11.4 °C 38.8 °F /  3.8 °C 29.7in /  1005.5hPa ESE 3.4mph /  5.5km/h 6.2mph /  10km/h 59.5% 0in /  0.0mm
10:04 52.9 °F /  11.6 °C 39 °F /  3.9 °C 29.7in /  1005.5hPa Este 3.6mph /  5.8km/h 6mph /  9.7km/h 59.3% 0in /  0.0mm
10:09 53.1 °F /  11.7 °C 39.2 °F /  4 °C 29.7in /  1005.5hPa Este 3.6mph /  5.8km/h 6mph /  9.7km/h 59% 0in /  0.0mm
10:14 53.6 °F /  12 °C 39.2 °F /  4 °C 29.7in /  1005.5hPa Este 3.6mph /  5.8km/h 5mph /  8km/h 58.2% 0in /  0.0mm
10:19 54.1 °F /  12.3 °C 39.2 °F /  4 °C 29.7in /  1005.5hPa Este 2.9mph /  4.7km/h 4.6mph /  7.4km/h 57% 0in /  0.0mm
10:24 54.7 °F /  12.6 °C 39.7 °F /  4.3 °C 29.7in /  1005.4hPa Este 2.4mph /  3.9km/h 5mph /  8km/h 56.9% 0in /  0.0mm
10:29 55.4 °F /  13 °C 39.9 °F /  4.4 °C 29.7in /  1005.4hPa Este 1.8mph /  2.9km/h 3mph /  4.8km/h 55.8% 0in /  0.0mm
10:34 56.1 °F /  13.4 °C 39.7 °F /  4.3 °C 29.7in /  1005.4hPa Este 1.4mph /  2.2km/h 2.9mph /  4.7km/h 54.3% 0in /  0.0mm
10:39 56.8 °F /  13.8 °C 39.6 °F /  4.2 °C 29.7in /  1005.4hPa Este 1.4mph /  2.2km/h 3.5mph /  5.6km/h 52.5% 0in /  0.0mm
10:44 57.6 °F /  14.2 °C 39.7 °F /  4.3 °C 29.7in /  1005.4hPa Este 1.4mph /  2.2km/h 3mph /  4.8km/h 51.3% 0in /  0.0mm
10:49 58.5 °F /  14.7 °C 39.9 °F /  4.4 °C 29.7in /  1005.4hPa Este 0.6mph /  0.9km/h 3mph /  4.8km/h 50.1% 0in /  0.0mm
10:54 58.8 °F /  14.9 °C 39.7 °F /  4.3 °C 29.7in /  1005.2hPa Calm   2.3mph /  3.7km/h 49.2% 0in /  0.0mm
10:59 59.4 °F /  15.2 °C 39.7 °F /  4.3 °C 29.7in /  1005.2hPa Calm   4.6mph /  7.4km/h 48.1% 0in /  0.0mm
11:04 59.4 °F /  15.2 °C 39.7 °F /  4.3 °C 29.7in /  1005.2hPa Calm   5mph /  8km/h 48.3% 0in /  0.0mm
11:09 59.2 °F /  15.1 °C 39.9 °F /  4.4 °C 29.7in /  1004.9hPa NNE 1.1mph /  1.7km/h 5mph /  8km/h 49% 0in /  0.0mm
11:14 59.2 °F /  15.1 °C 39.6 °F /  4.2 °C 29.7in /  1004.9hPa NE 1.8mph /  2.9km/h 5.9mph /  9.5km/h 48.3% 0in /  0.0mm
11:19 58.8 °F /  14.9 °C 39.6 °F /  4.2 °C 29.7in /  1004.9hPa NE 2.5mph /  4.1km/h 6.2mph /  10km/h 48.7% 0in /  0.0mm
11:24 59 °F /  15 °C 39.6 °F /  4.2 °C 29.7in /  1004.7hPa ENE 3.1mph /  5km/h 6.4mph /  10.3km/h 48.6% 0in /  0.0mm
11:29 59.4 °F /  15.2 °C 39.6 °F /  4.2 °C 29.7in /  1004.7hPa Este 3.1mph /  5km/h 7mph /  11.3km/h 48% 0in /  0.0mm
11:34 59.5 °F /  15.3 °C 39.7 °F /  4.3 °C 29.7in /  1004.7hPa Este 3.1mph /  5km/h 6mph /  9.7km/h 47.7% 0in /  0.0mm
11:39 60.1 °F /  15.6 °C 39.7 °F /  4.3 °C 29.7in /  1004.5hPa ESE 3.4mph /  5.5km/h 6.9mph /  11.1km/h 47.1% 0in /  0.0mm
11:44 60.4 °F /  15.8 °C 39.7 °F /  4.3 °C 29.7in /  1004.5hPa ESE 3.6mph /  5.8km/h 8.1mph /  13km/h 46.6% 0in /  0.0mm
11:49 61 °F /  16.1 °C 39 °F /  3.9 °C 29.7in /  1004.5hPa SSO 4.2mph /  6.8km/h 13mph /  20.9km/h 44.4% 0in /  0.0mm
11:54 61.3 °F /  16.3 °C 38.5 °F /  3.6 °C 29.7in /  1004.3hPa SSO 4.7mph /  7.6km/h 13mph /  20.9km/h 42.7% 0in /  0.0mm
11:59 61.9 °F /  16.6 °C 38.5 °F /  3.6 °C 29.7in /  1004.3hPa SSO 6.9mph /  11.1km/h 13mph /  20.9km/h 42% 0in /  0.0mm
12:04 62.2 °F /  16.8 °C 38.5 °F /  3.6 °C 29.7in /  1004.3hPa SO 8.1mph /  13km/h 15mph /  24.1km/h 41.3% 0in /  0.0mm
12:09 62.8 °F /  17.1 °C 38.7 °F /  3.7 °C 29.7in /  1004.0hPa ONO 6.5mph /  10.4km/h 15.2mph /  24.5km/h 40.8% 0in /  0.0mm
12:14 63.9 °F /  17.7 °C 37.9 °F /  3.3 °C 29.7in /  1004.0hPa OSO 5.2mph /  8.4km/h 18.5mph /  29.8km/h 38.3% 0in /  0.0mm
12:19 64.8 °F /  18.2 °C 37.8 °F /  3.2 °C 29.7in /  1004.0hPa Oeste 6.8mph /  11km/h 19.2mph /  30.9km/h 36.9% 0in /  0.0mm
12:24 64.9 °F /  18.3 °C 37.4 °F /  3 °C 29.6in /  1003.8hPa Oeste 8.1mph /  13km/h 20mph /  32.2km/h 36% 0in /  0.0mm
12:29 65.1 °F /  18.4 °C 37.6 °F /  3.1 °C 29.6in /  1003.8hPa Oeste 8.4mph /  13.6km/h 20mph /  32.2km/h 36% 0in /  0.0mm
12:34 65.3 °F /  18.5 °C 37.4 °F /  3 °C 29.6in /  1003.9hPa OSO 8.7mph /  14km/h 20.1mph /  32.3km/h 35.7% 0in /  0.0mm
12:39 64.8 °F /  18.2 °C 37.4 °F /  3 °C 29.6in /  1003.9hPa ONO 10.2mph /  16.4km/h 21mph /  33.8km/h 36.2% 0in /  0.0mm
12:44 64.4 °F /  18 °C 37.6 °F /  3.1 °C 29.6in /  1003.9hPa ONO 11.2mph /  18km/h 17mph /  27.4km/h 37% 0in /  0.0mm
12:49 64 °F /  17.8 °C 37.4 °F /  3 °C 29.6in /  1003.9hPa ONO 9.1mph /  14.6km/h 15mph /  24.1km/h 37.5% 0in /  0.0mm
12:54 63.9 °F /  17.7 °C 37.8 °F /  3.2 °C 29.6in /  1003.8hPa NO 7.4mph /  11.9km/h 20.8mph /  33.5km/h 38% 0in /  0.0mm
12:59 63.9 °F /  17.7 °C 37.6 °F /  3.1 °C 29.6in /  1003.8hPa ONO 7.4mph /  11.9km/h 21mph /  33.8km/h 38% 0in /  0.0mm
13:04 63.9 °F /  17.7 °C 37.8 °F /  3.2 °C 29.6in /  1003.8hPa ONO 7.4mph /  11.9km/h 15mph /  24.1km/h 38% 0in /  0.0mm
13:09 63.9 °F /  17.7 °C 37.8 °F /  3.2 °C 29.6in /  1003.8hPa ONO 6.2mph /  9.9km/h 11.8mph /  19km/h 38% 0in /  0.0mm
13:14 63.9 °F /  17.7 °C 37.8 °F /  3.2 °C 29.6in /  1003.8hPa OSO 5.2mph /  8.4km/h 12mph /  19.3km/h 38% 0in /  0.0mm
13:19 64 °F /  17.8 °C 37.8 °F /  3.2 °C 29.6in /  1003.8hPa NO 5.2mph /  8.4km/h 24.2mph /  38.9km/h 38% 0in /  0.0mm
13:24 63.9 °F /  17.7 °C 37.8 °F /  3.2 °C 29.6in /  1003.8hPa ONO 5.2mph /  8.4km/h 24mph /  38.6km/h 38% 0in /  0.0mm
13:29 63.7 °F /  17.6 °C 38.1 °F /  3.4 °C 29.6in /  1003.8hPa OSO 7.1mph /  11.4km/h 19mph /  30.6km/h 38.7% 0in /  0.0mm
13:34 63.7 °F /  17.6 °C 38.3 °F /  3.5 °C 29.6in /  1003.8hPa Oeste 8.7mph /  14km/h 12mph /  19.3km/h 39% 0in /  0.0mm
13:39 63.9 °F /  17.7 °C 38.1 °F /  3.4 °C 29.6in /  1003.8hPa OSO 6.9mph /  11.1km/h 20.7mph /  33.3km/h 38.4% 0in /  0.0mm
13:44 64 °F /  17.8 °C 38.3 °F /  3.5 °C 29.6in /  1003.8hPa ONO 5.4mph /  8.7km/h 21mph /  33.8km/h 38.7% 0in /  0.0mm
13:49 64 °F /  17.8 °C 38.5 °F /  3.6 °C 29.6in /  1003.8hPa Oeste 7mph /  11.2km/h 14mph /  22.5km/h 39% 0in /  0.0mm
13:54 64.2 °F /  17.9 °C 38.7 °F /  3.7 °C 29.6in /  1003.6hPa ONO 8.1mph /  13km/h 19.7mph /  31.7km/h 38.9% 0in /  0.0mm
13:59 64.2 °F /  17.9 °C 38.1 °F /  3.4 °C 29.6in /  1003.6hPa ONO 8.8mph /  14.1km/h 27.6mph /  44.4km/h 38% 0in /  0.0mm
14:04 64 °F /  17.8 °C 38.5 °F /  3.6 °C 29.6in /  1003.6hPa Oeste 9.2mph /  14.8km/h 28mph /  45.1km/h 38.6% 0in /  0.0mm
14:09 64.2 °F /  17.9 °C 38.7 °F /  3.7 °C 29.6in /  1003.2hPa ONO 10.7mph /  17.2km/h 23mph /  37km/h 38.9% 0in /  0.0mm
14:14 64.4 °F /  18 °C 38.5 °F /  3.6 °C 29.6in /  1003.2hPa ONO 11.8mph /  19km/h 29.4mph /  47.3km/h 38.3% 0in /  0.0mm
14:19 64.2 °F /  17.9 °C 38.5 °F /  3.6 °C 29.6in /  1003.2hPa Oeste 12.7mph /  20.5km/h 30mph /  48.3km/h 38.5% 0in /  0.0mm
14:24 64.4 °F /  18 °C 38.8 °F /  3.8 °C 29.6in /  1003.1hPa Oeste 13.5mph /  21.7km/h 25mph /  40.2km/h 39% 0in /  0.0mm
14:29 64.4 °F /  18 °C 38.7 °F /  3.7 °C 29.6in /  1003.1hPa Oeste 11.6mph /  18.7km/h 23mph /  37km/h 38.6% 0in /  0.0mm
14:34 64.2 °F /  17.9 °C 38.7 °F /  3.7 °C 29.6in /  1003.1hPa ONO 10.2mph /  16.4km/h 24.2mph /  38.9km/h 39% 0in /  0.0mm
14:39 64.2 °F /  17.9 °C 38.7 °F /  3.7 °C 29.6in /  1003.1hPa Oeste 10.4mph /  16.8km/h 24mph /  38.6km/h 39% 0in /  0.0mm
14:44 64.2 °F /  17.9 °C 38.8 °F /  3.8 °C 29.6in /  1003.1hPa ONO 10.7mph /  17.2km/h 20.7mph /  33.3km/h 39% 0in /  0.0mm
14:49 64 °F /  17.8 °C 39 °F /  3.9 °C 29.6in /  1003.1hPa ONO 11mph /  17.7km/h 21mph /  33.8km/h 39.6% 0in /  0.0mm
14:54 64 °F /  17.8 °C 39.2 °F /  4 °C 29.6in /  1003.0hPa ONO 11.2mph /  18km/h 20.8mph /  33.5km/h 40% 0in /  0.0mm
14:59 64 °F /  17.8 °C 38.8 °F /  3.8 °C 29.6in /  1003.0hPa NO 9.4mph /  15.2km/h 21mph /  33.8km/h 39.5% 0in /  0.0mm
15:04 64 °F /  17.8 °C 38.8 °F /  3.8 °C 29.6in /  1003.0hPa ONO 8.5mph /  13.7km/h 23mph /  37km/h 39.5% 0in /  0.0mm
15:09 64 °F /  17.8 °C 38.8 °F /  3.8 °C 29.6in /  1003.0hPa Oeste 10.7mph /  17.3km/h 26.8mph /  43.1km/h 39.3% 0in /  0.0mm
15:14 64 °F /  17.8 °C 39.2 °F /  4 °C 29.6in /  1003.0hPa Oeste 12.5mph /  20.1km/h 29.9mph /  48.1km/h 40% 0in /  0.0mm
15:19 64 °F /  17.8 °C 39.2 °F /  4 °C 29.6in /  1003.1hPa Oeste 12.5mph /  20.1km/h 30mph /  48.3km/h 40% 0in /  0.0mm
15:24 64 °F /  17.8 °C 39.2 °F /  4 °C 29.6in /  1003.1hPa Oeste 12.5mph /  20.1km/h 31.3mph /  50.4km/h 40% 0in /  0.0mm
15:29 63.9 °F /  17.7 °C 39.2 °F /  4 °C 29.6in /  1003.1hPa ONO 12.8mph /  20.6km/h 31mph /  49.9km/h 40.2% 0in /  0.0mm
15:34 63.7 °F /  17.6 °C 39.6 °F /  4.2 °C 29.6in /  1003.3hPa Oeste 13mph /  20.9km/h 26mph /  41.8km/h 41% 0in /  0.0mm
15:39 63.5 °F /  17.5 °C 39.4 °F /  4.1 °C 29.6in /  1003.3hPa ONO 12.7mph /  20.4km/h 25mph /  40.2km/h 41% 0in /  0.0mm
15:44 63.5 °F /  17.5 °C 39.4 °F /  4.1 °C 29.6in /  1003.3hPa ONO 12.5mph /  20.1km/h 22mph /  35.4km/h 41% 0in /  0.0mm
15:49 63.7 °F /  17.6 °C 39.4 °F /  4.1 °C 29.6in /  1003.5hPa Oeste 11.2mph /  18km/h 21.9mph /  35.2km/h 41% 0in /  0.0mm
15:54 63.3 °F /  17.4 °C 39.2 °F /  4 °C 29.6in /  1003.5hPa Oeste 10.2mph /  16.4km/h 23.5mph /  37.8km/h 41% 0in /  0.0mm
15:59 63.3 °F /  17.4 °C 39.4 °F /  4.1 °C 29.6in /  1003.5hPa Oeste 11.7mph /  18.8km/h 23mph /  37km/h 41.4% 0in /  0.0mm
16:04 63.3 °F /  17.4 °C 39.7 °F /  4.3 °C 29.6in /  1003.5hPa Oeste 12.5mph /  20.1km/h 21.9mph /  35.2km/h 41.8% 0in /  0.0mm
16:09 63.3 °F /  17.4 °C 39.7 °F /  4.3 °C 29.6in /  1003.3hPa Oeste 12.5mph /  20.1km/h 22mph /  35.4km/h 42% 0in /  0.0mm
16:14 63.3 °F /  17.4 °C 39.7 °F /  4.3 °C 29.6in /  1003.3hPa Oeste 12.5mph /  20.1km/h 26.5mph /  42.6km/h 42% 0in /  0.0mm
16:19 63.1 °F /  17.3 °C 39.7 °F /  4.3 °C 29.6in /  1003.3hPa Oeste 12.1mph /  19.5km/h 26.1mph /  42km/h 42% 0in /  0.0mm
16:24 63.1 °F /  17.3 °C 39.7 °F /  4.3 °C 29.6in /  1003.2hPa Oeste 11.8mph /  19km/h 26.5mph /  42.6km/h 42% 0in /  0.0mm
16:29 63.1 °F /  17.3 °C 39.7 °F /  4.3 °C 29.6in /  1003.2hPa Oeste 12.7mph /  20.5km/h 26.5mph /  42.6km/h 42% 0in /  0.0mm
16:34 63.1 °F /  17.3 °C 39.7 °F /  4.3 °C 29.6in /  1003.2hPa Oeste 13.5mph /  21.7km/h 20mph /  32.2km/h 42% 0in /  0.0mm
16:39 63.3 °F /  17.4 °C 39.7 °F /  4.3 °C 29.6in /  1002.9hPa Oeste 11.6mph /  18.6km/h 25.3mph /  40.7km/h 42% 0in /  0.0mm
16:44 63.3 °F /  17.4 °C 39.7 °F /  4.3 °C 29.6in /  1002.9hPa ONO 10.2mph /  16.4km/h 25.3mph /  40.7km/h 42% 0in /  0.0mm
16:49 63.3 °F /  17.4 °C 39.7 °F /  4.3 °C 29.6in /  1002.9hPa Oeste 11.6mph /  18.6km/h 25.6mph /  41.2km/h 42% 0in /  0.0mm
16:54 63.1 °F /  17.3 °C 39.7 °F /  4.3 °C 29.6in /  1002.9hPa Oeste 12.5mph /  20.1km/h 26mph /  41.8km/h 42% 0in /  0.0mm
16:59 63.1 °F /  17.3 °C 39.7 °F /  4.3 °C 29.6in /  1002.9hPa Oeste 11mph /  17.7km/h 18.4mph /  29.6km/h 42% 0in /  0.0mm
17:04 63.3 °F /  17.4 °C 39.7 °F /  4.3 °C 29.6in /  1002.9hPa Oeste 10.2mph /  16.4km/h 23mph /  37km/h 42% 0in /  0.0mm
17:09 63.3 °F /  17.4 °C 39.9 °F /  4.4 °C 29.6in /  1002.9hPa Oeste 10.5mph /  16.9km/h 23mph /  37km/h 42% 0in /  0.0mm
17:14 63.5 °F /  17.5 °C 40.1 °F /  4.5 °C 29.6in /  1002.9hPa ONO 10.7mph /  17.2km/h 23mph /  37km/h 42% 0in /  0.0mm
17:19 63.9 °F /  17.7 °C 39.7 °F /  4.3 °C 29.6in /  1002.9hPa Oeste 12.9mph /  20.7km/h 26.5mph /  42.6km/h 41.2% 0in /  0.0mm
17:24 63.9 °F /  17.7 °C 39.7 °F /  4.3 °C 29.6in /  1002.7hPa Oeste 14.5mph /  23.3km/h 29.9mph /  48.1km/h 41% 0in /  0.0mm
17:29 63.9 °F /  17.7 °C 39.7 °F /  4.3 °C 29.6in /  1002.7hPa Oeste 14.5mph /  23.3km/h 33.7mph /  54.2km/h 41% 0in /  0.0mm
17:34 63.9 °F /  17.7 °C 39.7 °F /  4.3 °C 29.6in /  1002.9hPa Oeste 14.5mph /  23.3km/h 34mph /  54.7km/h 41% 0in /  0.0mm
17:39 63.9 °F /  17.7 °C 39.7 °F /  4.3 °C 29.6in /  1002.9hPa Oeste 14.6mph /  23.5km/h 28mph /  45.1km/h 41% 0in /  0.0mm
17:44 63.9 °F /  17.7 °C 39.7 °F /  4.3 °C 29.6in /  1002.9hPa Oeste 14.7mph /  23.7km/h 23mph /  37km/h 41% 0in /  0.0mm
17:49 63.9 °F /  17.7 °C 39.9 °F /  4.4 °C 29.6in /  1002.9hPa Oeste 13mph /  21km/h 21.9mph /  35.2km/h 41.3% 0in /  0.0mm
17:54 63.9 °F /  17.7 °C 40.1 °F /  4.5 °C 29.6in /  1002.8hPa Oeste 11.8mph /  19km/h 25.3mph /  40.7km/h 42% 0in /  0.0mm
17:59 63.7 °F /  17.6 °C 40.1 °F /  4.5 °C 29.6in /  1002.8hPa Oeste 11.8mph /  19km/h 26.8mph /  43.1km/h 42% 0in /  0.0mm
18:04 63.7 °F /  17.6 °C 40.1 °F /  4.5 °C 29.6in /  1002.8hPa Oeste 11.8mph /  19km/h 27mph /  43.5km/h 42% 0in /  0.0mm
18:09 63.5 °F /  17.5 °C 40.1 °F /  4.5 °C 29.6in /  1002.5hPa OSO 12.1mph /  19.4km/h 25.3mph /  40.7km/h 42% 0in /  0.0mm
18:14 63.5 °F /  17.5 °C 39.9 °F /  4.4 °C 29.6in /  1002.5hPa Oeste 12.3mph /  19.8km/h 26.5mph /  42.6km/h 42% 0in /  0.0mm
18:19 63.5 °F /  17.5 °C 39.9 °F /  4.4 °C 29.6in /  1002.5hPa Oeste 12.3mph /  19.8km/h 26mph /  41.8km/h 42% 0in /  0.0mm
18:24 63.5 °F /  17.5 °C 39.9 °F /  4.4 °C 29.6in /  1002.4hPa Oeste 12.3mph /  19.8km/h 20mph /  32.2km/h 42% 0in /  0.0mm
18:29 63.7 °F /  17.6 °C 40.1 °F /  4.5 °C 29.6in /  1002.4hPa Oeste 11.4mph /  18.4km/h 21.3mph /  34.3km/h 42% 0in /  0.0mm
18:34 63.7 °F /  17.6 °C 40.1 °F /  4.5 °C 29.6in /  1002.9hPa ONO 10.7mph /  17.2km/h 21mph /  33.8km/h 42% 0in /  0.0mm
18:39 63.7 °F /  17.6 °C 40.1 °F /  4.5 °C 29.6in /  1002.9hPa OSO 10.7mph /  17.2km/h 23mph /  37km/h 42% 0in /  0.0mm
18:44 63.7 °F /  17.6 °C 40.1 °F /  4.5 °C 29.6in /  1002.9hPa Oeste 10.7mph /  17.2km/h 31.7mph /  51km/h 42% 0in /  0.0mm
18:49 63.9 °F /  17.7 °C 40.3 °F /  4.6 °C 29.6in /  1002.9hPa Oeste 11.9mph /  19.2km/h 32.2mph /  51.8km/h 42% 0in /  0.0mm
18:54 63.7 °F /  17.6 °C 40.1 °F /  4.5 °C 29.6in /  1002.7hPa Oeste 13mph /  20.9km/h 29mph /  46.7km/h 42% 0in /  0.0mm
18:59 63.9 °F /  17.7 °C 39.9 °F /  4.4 °C 29.6in /  1002.7hPa Oeste 14mph /  22.5km/h 27mph /  43.5km/h 41.2% 0in /  0.0mm
19:04 63.9 °F /  17.7 °C 39.9 °F /  4.4 °C 29.6in /  1002.7hPa Oeste 14.5mph /  23.3km/h 26mph /  41.8km/h 41.4% 0in /  0.0mm
19:09 63.9 °F /  17.7 °C 40.1 °F /  4.5 °C 29.6in /  1002.7hPa Oeste 14mph /  22.6km/h 27.6mph /  44.4km/h 41.6% 0in /  0.0mm
19:14 63.9 °F /  17.7 °C 40.3 °F /  4.6 °C 29.6in /  1002.7hPa Oeste 13.7mph /  22.1km/h 28mph /  45.1km/h 42% 0in /  0.0mm
19:19 63.9 °F /  17.7 °C 40.3 °F /  4.6 °C 29.6in /  1002.7hPa Oeste 13.9mph /  22.3km/h 26mph /  41.8km/h 42% 0in /  0.0mm
19:24 63.9 °F /  17.7 °C 40.3 °F /  4.6 °C 29.6in /  1002.7hPa Oeste 14mph /  22.5km/h 25.3mph /  40.7km/h 42% 0in /  0.0mm
19:29 63.7 °F /  17.6 °C 40.1 °F /  4.5 °C 29.6in /  1002.7hPa Oeste 13.7mph /  22.1km/h 23mph /  37km/h 42% 0in /  0.0mm
19:34 63.7 °F /  17.6 °C 40.1 °F /  4.5 °C 29.6in /  1003.0hPa ONO 13.5mph /  21.7km/h 23mph /  37km/h 42% 0in /  0.0mm
19:39 63.3 °F /  17.4 °C 39.9 °F /  4.4 °C 29.6in /  1003.0hPa Oeste 11.6mph /  18.7km/h 21mph /  33.8km/h 42% 0in /  0.0mm
19:44 63.3 °F /  17.4 °C 40.3 °F /  4.6 °C 29.6in /  1003.0hPa Oeste 10.2mph /  16.4km/h 19mph /  30.6km/h 42.8% 0in /  0.0mm
19:49 63.1 °F /  17.3 °C 40.3 °F /  4.6 °C 29.6in /  1003.0hPa ONO 9.9mph /  16km/h 20.8mph /  33.5km/h 43% 0in /  0.0mm
19:54 63.1 °F /  17.3 °C 40.3 °F /  4.6 °C 29.6in /  1003.0hPa Oeste 9.7mph /  15.6km/h 22.3mph /  35.9km/h 43% 0in /  0.0mm
19:59 63.1 °F /  17.3 °C 40.3 °F /  4.6 °C 29.6in /  1003.0hPa Oeste 10mph /  16.1km/h 22mph /  35.4km/h 43% 0in /  0.0mm
20:04 63.1 °F /  17.3 °C 40.3 °F /  4.6 °C 29.6in /  1003.5hPa Oeste 10.2mph /  16.4km/h 19.7mph /  31.7km/h 43% 0in /  0.0mm
20:09 63.3 °F /  17.4 °C 40.5 °F /  4.7 °C 29.6in /  1003.5hPa ONO 10.2mph /  16.4km/h 20mph /  32.2km/h 43% 0in /  0.0mm
20:14 63.1 °F /  17.3 °C 40.3 °F /  4.6 °C 29.6in /  1003.5hPa ONO 10.2mph /  16.4km/h 19.2mph /  30.9km/h 43% 0in /  0.0mm
20:19 63.1 °F /  17.3 °C 40.3 °F /  4.6 °C 29.6in /  1003.5hPa Oeste 9.4mph /  15.1km/h 20mph /  32.2km/h 43% 0in /  0.0mm
20:24 63.1 °F /  17.3 °C 40.8 °F /  4.9 °C 29.6in /  1003.5hPa Oeste 8.7mph /  14km/h 20mph /  32.2km/h 43.8% 0in /  0.0mm
20:29 63.1 °F /  17.3 °C 40.8 °F /  4.9 °C 29.6in /  1003.5hPa OSO 8.7mph /  14km/h 17.5mph /  28.2km/h 44% 0in /  0.0mm
20:34 63.1 °F /  17.3 °C 40.8 °F /  4.9 °C 29.6in /  1003.5hPa Oeste 8.7mph /  14km/h 24.6mph /  39.6km/h 44% 0in /  0.0mm
20:39 63.1 °F /  17.3 °C 41 °F /  5 °C 29.6in /  1003.0hPa Oeste 9.4mph /  15.2km/h 25mph /  40.2km/h 44% 0in /  0.0mm
20:44 63.3 °F /  17.4 °C 41 °F /  5 °C 29.6in /  1003.0hPa OSO 10mph /  16.1km/h 24mph /  38.6km/h 44% 0in /  0.0mm
20:49 63.1 °F /  17.3 °C 40.8 °F /  4.9 °C 29.6in /  1003.0hPa Oeste 9.8mph /  15.8km/h 16.1mph /  25.9km/h 44% 0in /  0.0mm
20:54 63 °F /  17.2 °C 40.8 °F /  4.9 °C 29.6in /  1003.0hPa OSO 9.7mph /  15.6km/h 17.3mph /  27.8km/h 44% 0in /  0.0mm
20:59 63.1 °F /  17.3 °C 40.8 °F /  4.9 °C 29.6in /  1003.0hPa Oeste 9.1mph /  14.6km/h 17.3mph /  27.8km/h 44% 0in /  0.0mm
21:04 63.1 °F /  17.3 °C 40.8 °F /  4.9 °C 29.6in /  1003.0hPa Oeste 8.7mph /  14km/h 19.2mph /  30.9km/h 44% 0in /  0.0mm
21:09 63.1 °F /  17.3 °C 40.8 °F /  4.9 °C 29.6in /  1002.9hPa Oeste 8.6mph /  13.8km/h 19mph /  30.6km/h 44% 0in /  0.0mm
21:14 63 °F /  17.2 °C 40.8 °F /  4.9 °C 29.6in /  1002.9hPa Oeste 8.5mph /  13.7km/h 25.3mph /  40.7km/h 44% 0in /  0.0mm
21:19 63.1 °F /  17.3 °C 40.8 °F /  4.9 °C 29.6in /  1002.9hPa Oeste 9.9mph /  16km/h 25mph /  40.2km/h 44% 0in /  0.0mm
21:24 63.1 °F /  17.3 °C 40.8 °F /  4.9 °C 29.6in /  1002.5hPa Oeste 11.2mph /  18km/h 24.6mph /  39.6km/h 43.9% 0in /  0.0mm
21:29 63.3 °F /  17.4 °C 40.5 °F /  4.7 °C 29.6in /  1002.5hPa Oeste 12.7mph /  20.4km/h 25mph /  40.2km/h 43.1% 0in /  0.0mm
21:34 63.3 °F /  17.4 °C 40.5 °F /  4.7 °C 29.6in /  1002.9hPa Oeste 14mph /  22.5km/h 25mph /  40.2km/h 43% 0in /  0.0mm
21:39 63.3 °F /  17.4 °C 40.5 °F /  4.7 °C 29.6in /  1002.9hPa Oeste 13.7mph /  22.1km/h 25mph /  40.2km/h 43% 0in /  0.0mm
21:44 63.3 °F /  17.4 °C 40.5 °F /  4.7 °C 29.6in /  1002.9hPa Oeste 13.5mph /  21.7km/h 22mph /  35.4km/h 43% 0in /  0.0mm
21:49 63.3 °F /  17.4 °C 40.5 °F /  4.7 °C 29.6in /  1003.1hPa ONO 12.9mph /  20.8km/h 22mph /  35.4km/h 43% 0in /  0.0mm
21:54 63.3 °F /  17.4 °C 40.5 °F /  4.7 °C 29.6in /  1003.1hPa Oeste 12.5mph /  20.1km/h 26.1mph /  42km/h 43% 0in /  0.0mm
21:59 63.5 °F /  17.5 °C 40.6 °F /  4.8 °C 29.6in /  1003.1hPa Oeste 13.2mph /  21.3km/h 26mph /  41.8km/h 43% 0in /  0.0mm
22:04 63.3 °F /  17.4 °C 40.5 °F /  4.7 °C 29.6in /  1003.1hPa Oeste 13.7mph /  22.1km/h 25mph /  40.2km/h 43% 0in /  0.0mm
22:09 63.1 °F /  17.3 °C 40.3 °F /  4.6 °C 29.6in /  1003.1hPa Oeste 12.1mph /  19.4km/h 22mph /  35.4km/h 43% 0in /  0.0mm
22:14 63.1 °F /  17.3 °C 40.3 °F /  4.6 °C 29.6in /  1003.1hPa Oeste 10.7mph /  17.2km/h 19.2mph /  30.9km/h 43% 0in /  0.0mm
22:19 63.1 °F /  17.3 °C 40.3 °F /  4.6 °C 29.6in /  1003.1hPa Oeste 11.1mph /  17.9km/h 19mph /  30.6km/h 43% 0in /  0.0mm
22:24 63.1 °F /  17.3 °C 40.3 °F /  4.6 °C 29.6in /  1003.1hPa Oeste 11.4mph /  18.4km/h 18mph /  29km/h 43.1% 0in /  0.0mm
22:29 63 °F /  17.2 °C 40.6 °F /  4.8 °C 29.6in /  1003.1hPa ONO 9.9mph /  16km/h 16mph /  25.7km/h 44% 0in /  0.0mm
22:34 63 °F /  17.2 °C 40.6 °F /  4.8 °C 29.6in /  1003.1hPa Oeste 8.7mph /  14km/h 15.2mph /  24.5km/h 44% 0in /  0.0mm
22:39 63 °F /  17.2 °C 40.6 °F /  4.8 °C 29.6in /  1003.1hPa Oeste 8.7mph /  14km/h 18.5mph /  29.8km/h 43.9% 0in /  0.0mm
22:44 63 °F /  17.2 °C 40.6 °F /  4.8 °C 29.6in /  1003.1hPa ONO 8.7mph /  14km/h 19mph /  30.6km/h 44% 0in /  0.0mm
22:49 62.8 °F /  17.1 °C 40.5 °F /  4.7 °C 29.6in /  1003.2hPa Oeste 9mph /  14.5km/h 16.1mph /  25.9km/h 44% 0in /  0.0mm
22:54 62.8 °F /  17.1 °C 40.5 °F /  4.7 °C 29.6in /  1003.2hPa Oeste 9.2mph /  14.8km/h 16mph /  25.7km/h 44% 0in /  0.0mm
22:59 62.6 °F /  17 °C 40.5 °F /  4.7 °C 29.6in /  1003.2hPa Oeste 8.8mph /  14.1km/h 16.3mph /  26.2km/h 44% 0in /  0.0mm
23:04 62.8 °F /  17.1 °C 40.5 °F /  4.7 °C 29.6in /  1003.2hPa Oeste 8.5mph /  13.7km/h 17.5mph /  28.2km/h 44% 0in /  0.0mm
23:09 62.4 °F /  16.9 °C 40.3 °F /  4.6 °C 29.6in /  1002.8hPa Oeste 8.6mph /  13.9km/h 17mph /  27.4km/h 44% 0in /  0.0mm
23:14 62.4 °F /  16.9 °C 40.3 °F /  4.6 °C 29.6in /  1002.8hPa Oeste 8.7mph /  14km/h 18.4mph /  29.6km/h 44% 0in /  0.0mm
23:19 62.6 °F /  17 °C 40.3 °F /  4.6 °C 29.6in /  1002.8hPa Oeste 8.7mph /  14km/h 18mph /  29km/h 44% 0in /  0.0mm
23:24 62.8 °F /  17.1 °C 40.1 °F /  4.5 °C 29.6in /  1002.7hPa Oeste 8.7mph /  14km/h 20.7mph /  33.3km/h 43.4% 0in /  0.0mm
23:29 62.8 °F /  17.1 °C 40.3 °F /  4.6 °C 29.6in /  1002.7hPa Oeste 9mph /  14.5km/h 21mph /  33.8km/h 43.6% 0in /  0.0mm
23:34 62.8 °F /  17.1 °C 40.1 °F /  4.5 °C 29.6in /  1002.7hPa Oeste 9.2mph /  14.8km/h 18.4mph /  29.6km/h 43.2% 0in /  0.0mm
23:39 62.8 °F /  17.1 °C 39.9 °F /  4.4 °C 29.6in /  1002.5hPa Oeste 9.2mph /  14.8km/h 18.5mph /  29.8km/h 43% 0in /  0.0mm
23:44 63 °F /  17.2 °C 40.1 °F /  4.5 °C 29.6in /  1002.5hPa Oeste 9.2mph /  14.8km/h 21.9mph /  35.2km/h 43% 0in /  0.0mm
23:49 63 °F /  17.2 °C 40.1 °F /  4.5 °C 29.6in /  1002.5hPa Oeste 10.6mph /  17.1km/h 22mph /  35.4km/h 43% 0in /  0.0mm
23:54 63 °F /  17.2 °C 40.1 °F /  4.5 °C 29.6in /  1002.4hPa Oeste 11.8mph /  19km/h 21mph /  33.8km/h 43% 0in /  0.0mm
23:59 63 °F /  17.2 °C 40.1 °F /  4.5 °C 29.6in /  1002.4hPa OSO 10.2mph /  16.4km/h 17.3mph /  27.8km/h 43% 0in /  0.0mm
Murcia-Puente Tocinos, España
Compliments of Weather Underground - 2.75 mb

La estación de MeteoMurcia.com, publica sus datos en los siguientes proyectos:

Weather Underground PWS IMURCIAP2 Meteoclimatic www.awekas.at

W3Counter
Web Analytics